This is the latest recevied weather packets stored in our database for station/object EB2EMZ-W. If no packets are shown the sender has not sent any weather packets the latest 10 day(s).
| Time | Temp. | Humidity | Pressure | Rain* | Wind** | Luminosity | Snow |
|---|---|---|---|---|---|---|---|
| 1787845637 | 28.33° C | 19% | 995 hPa | 0 mm | - | - | - |
| 1787843817 | 28.33° C | 16% | 994 hPa | 0 mm | - | - | - |
| 1787841996 | 29.44° C | 13% | 994 hPa | 0 mm | - | - | - |
| 1787840175 | 28.89° C | 13% | 994 hPa | 0 mm | - | - | - |
| 1787838355 | 28.89° C | 15% | 993 hPa | 0 mm | - | - | - |
| 1787836536 | 28.89° C | 19% | 993 hPa | 0 mm | - | - | - |
| 1787834715 | 29.44° C | 19% | 993 hPa | 0 mm | - | - | - |
| 1787832895 | 28.89° C | 21% | 993 hPa | 0 mm | - | - | - |
| 1787831074 | 26.67° C | 23% | 993 hPa | 0 mm | - | - | - |
| 1787829255 | 27.22° C | 25% | 993 hPa | 0 mm | - | - | - |
| 1787827434 | 26.67° C | 30% | 994 hPa | 0 mm | - | - | - |
| 1787825615 | 25.56° C | 31% | 994 hPa | 0 mm | - | - | - |
| 1787823794 | 26.11° C | 31% | 995 hPa | 0 mm | - | - | - |
| 1787821973 | 25° C | 33% | 994 hPa | 0 mm | - | - | - |
| 1787820153 | 24.44° C | 38% | 994 hPa | 0 mm | - | - | - |
| 1787818333 | 23.33° C | 41% | 994 hPa | 0 mm | - | - | - |
| 1787816513 | 22.22° C | 47% | 994 hPa | 0 mm | - | - | - |
| 1787814692 | 21.67° C | 50% | 994 hPa | 0 mm | - | - | - |
| 1787812872 | 21.67° C | 50% | 994 hPa | 0 mm | - | - | - |
| 1787811052 | 21.11° C | 52% | 994 hPa | 0 mm | - | - | - |
| 1787809232 | 21.11° C | 50% | 994 hPa | 0 mm | - | - | - |
| 1787807412 | 21.11° C | 48% | 1050 hPa | 0 mm | - | - | - |
| 1787805591 | 21.11° C | 47% | 994 hPa | 0 mm | - | - | - |
| 1787803771 | 21.11° C | 48% | 994 hPa | 0 mm | - | - | - |
| 1787801951 | 21.67° C | 46% | 994 hPa | 0 mm | - | - | - |
* Rain latest hour (hover to see other rain measurements)
** Current wind speed in m/s (hover to see current wind gust speed)